Rixie, Nevada
Current Conditions -  °F | °C
As of 12:56 AM on Friday 24 Oct 2014 (Local Time) from KWMC Reporting Station
Clear Clear  
Wind Chill: 31°   Ceiling: Unl
Heat Index: 38°   Visibility: 10mi
Dew Point: 30°   Wind: 9mph
Humidity: 73%   Direction: 140°SE
Pressure: 30.09"   Gusts: NA
Location:  40.6619°N, 116.867°W
Report Text: KWMC 240756Z AUTO 14008KT 10SM CLR 03/M01 A3009 RMK AO2 SLP171 T00331011 401940028
Loading
Personal Weather Stations






























Interactive Weather Map
Tropical Storm Tracking
New forecast layout! Learn more

10-Day Weather Forecast

Advertisements
Track Severe Weather on mobile